HOURLY OBS INDEX

088

Central - north

EILDON FIRE TOWER

Site: 088164
Alt: 637.0m
57km NNE of HEALESVILLE


  Time     Wind        Temp  DP   Baro     Rain since   Rain past  Vis(m), Cloud(base in m), Weather
  local        km/h                         9am  last   hr   10m    
Fri 02:00  ESE  4/  7  20.9 10.4  ------    0.0   0.0   0.0   0.0   ----- 
Fri 02:30   SE 11/ 13  19.8 11.8  ------    0.0   0.0   0.0   0.0   ----- 
Fri 03:00    S  6/  7  20.1 11.1  ------    0.0   0.0   0.0   0.0   ----- 
Fri 03:30    S  4/  4  20.2 10.6  ------    0.0   0.0   0.0   0.0   ----- 
Fri 04:00    S  2/  6  20.1 10.8  ------    0.0   0.0   0.0   0.0   ----- 
Fri 04:30  ESE  9/ 11  19.2 12.0  ------    0.0   0.0   0.0   0.0   ----- 
Fri 05:00   NE  9/  9  18.9 12.2  ------    0.0   0.0   0.0   0.0   ----- 
Fri 05:30  ENE 11/ 13  18.4 12.8  ------    0.0   0.0   0.0   0.0   ----- 
Fri 06:00    E 17/ 19  18.8 11.9  ------    0.0   0.0   0.0   0.0   ----- 
Fri 06:30    E 15/ 19  18.7 12.0  ------    0.0   0.0   0.0   0.0   ----- 
Fri 07:00    E 19/ 24  18.7 12.0  ------    0.0   0.0   0.0   0.0   ----- 

MANGALORE AIRPORT

Site: 088109
Alt: 140.8m
16km NNE of SEYMOUR


  Time     Wind        Temp  DP   Baro     Rain since   Rain past  Vis(m), Cloud(base in m), Weather
  local        km/h                         9am  last   hr   10m    
Fri 02:00    S  6/  7  21.1 16.5  1012.3    1.6   0.0   0.0   0.0   10000|BR3300 
Fri 02:30    S  6/  6  21.0 16.6  1012.1    1.6   0.0   0.0   0.0   10000 
Fri 03:00    C  0/  2  20.2 16.6  1012.0    1.6   0.0   0.0   0.0   10000 
Fri 03:30    C  0/  0  20.0 17.2  1011.7    1.6   0.0   0.0   0.0   10000 
Fri 04:00    S  6/  7  19.7 17.3  1011.1    1.6   0.0   0.0   0.0   10000 
Fri 04:30    C  0/  0  19.9 17.7  1010.8    1.6   0.0   0.0   0.0   10000|OC3600 
Fri 05:00    C  0/  0  19.8 17.4  1010.9    1.6   0.0   0.0   0.0   10000|SC2970 
Fri 05:30    C  0/  0  19.9 17.3  1010.9    1.6   0.0   0.0   0.0   10000|BR2970 OC3600 
Fri 06:00    S  7/  9  20.0 17.4  1011.2    1.6   0.0   0.0   0.0   10000|OC2790 
Fri 06:30    S  7/ 11  20.2 17.2  1011.6    1.6   0.0   0.0   0.0   10000|OC2430 
Fri 07:00    C  0/  0  20.1 17.7  1011.8    1.6   0.0   0.0   0.0   10000|OC2550 

REDESDALE

Site: 088051
Alt: 290.0m
36km SE of BENDIGO


  Time     Wind        Temp  DP   Baro     Rain since   Rain past  Vis(m), Cloud(base in m), Weather
  local        km/h                         9am  last   hr   10m    
Fri 02:00    S  7/  9  18.8 17.3  ------    0.4   0.0   0.0   0.0   ----- 
Fri 02:30    S  7/  9  18.8 17.1  ------    0.4   0.0   0.0   0.0   ----- 
Fri 03:00    S  6/  7  18.6 16.8  ------    0.4   0.0   0.0   0.0   ----- 
Fri 03:30    S  2/  4  18.7 16.7  ------    0.4   0.0   0.0   0.0   ----- 
Fri 04:00  SSW  6/  7  18.6 16.8  ------    0.4   0.0   0.0   0.0   ----- 
Fri 04:30   SW  4/  4  18.8 16.8  ------    0.4   0.0   0.0   0.0   ----- 
Fri 05:00   NW  2/  6  19.2 16.4  ------    0.4   0.0   0.0   0.0   ----- 
Fri 05:30  WNW  2/  4  18.9 16.7  ------    0.4   0.0   0.0   0.0   ----- 
Fri 06:00    W  4/  4  18.7 16.7  ------    0.4   0.0   0.0   0.0   ----- 
Fri 06:30  WSW  4/  6  18.9 16.7  ------    0.4   0.0   0.0   0.0   ----- 
Fri 07:00   SE  4/  6  18.8 16.8  ------    0.4   0.0   0.0   0.0   ----- 

WALLAN (KILMORE GAP)

Site: 088162
Alt: 527.8m
43km SSW of SEYMOUR


  Time     Wind        Temp  DP   Baro     Rain since   Rain past  Vis(m), Cloud(base in m), Weather
  local        km/h                         9am  last   hr   10m    
Fri 02:00    E  7/  7  19.7 15.1  1014.2    0.2   0.2   0.2   0.0   -----|SC2550 SC3000 
Fri 02:30    E  7/  9  19.3 15.2  1013.9    0.2   0.0   0.2   0.0   ----- 
Fri 03:00  ENE 11/ 15  19.2 15.3  1013.6    0.2   0.0   0.0   0.0   -----|SC2400 SC3000 BR3750 
Fri 03:30   NE 17/ 19  19.3 15.2  1013.2    0.2   0.0   0.0   0.0   -----|OC3450 
Fri 04:00   NE 17/ 20  19.6 15.0  1012.8    0.4   0.2   0.2   0.0   -----|OC3450 
Fri 04:30   NE 20/ 24  19.4 15.1  1012.5    0.4   0.0   0.2   0.0   -----|OC3150 
Fri 05:00  NNE 20/ 28  19.2 15.1  1012.2    0.4   0.0   0.0   0.0   -----|SC2250 BR2820 OC3450 
Fri 05:30  NNE 26/ 33  19.4 15.1  1012.3    0.4   0.0   0.0   0.0   -----|OC2430 
Fri 06:00  NNE 20/ 24  18.8 15.3  1012.7    0.4   0.0   0.0   0.0   -----|BR2730 OC3450 OC3750 
Fri 06:30    N 22/ 28  18.7 15.2  1012.9    0.4   0.0   0.0   0.0   -----|SC2250 OC3000 
Fri 07:00  NNE 24/ 30  19.0 14.9  1013.0    0.4   0.0   0.0   0.0   -----|OC2490